sensor_id;sensor_type;location;lat;lon;timestamp;P1;durP1;ratioP1;P2;durP2;ratioP2
4921;SDS011;16625;53.624;10.106;2023-04-28T00:00:20;13.83;;;9.63;;
4921;SDS011;16625;53.624;10.106;2023-04-28T00:02:47;20.27;;;10.73;;
4921;SDS011;16625;53.624;10.106;2023-04-28T00:05:14;14.67;;;9.70;;
4921;SDS011;16625;53.624;10.106;2023-04-28T00:07:41;17.07;;;9.80;;
4921;SDS011;16625;53.624;10.106;2023-04-28T00:10:08;15.27;;;9.20;;
4921;SDS011;16625;53.624;10.106;2023-04-28T00:12:37;15.97;;;9.47;;
4921;SDS011;16625;53.624;10.106;2023-04-28T00:15:04;17.50;;;10.17;;
4921;SDS011;16625;53.624;10.106;2023-04-28T00:17:33;16.30;;;10.03;;
4921;SDS011;16625;53.624;10.106;2023-04-28T00:20:03;14.93;;;8.87;;
4921;SDS011;16625;53.624;10.106;2023-04-28T00:22:31;22.70;;;10.23;;
4921;SDS011;16625;53.624;10.106;2023-04-28T00:24:58;12.13;;;9.20;;
4921;SDS011;16625;53.624;10.106;2023-04-28T00:27:25;15.03;;;10.40;;
4921;SDS011;16625;53.624;10.106;2023-04-28T00:29:52;14.77;;;9.50;;
4921;SDS011;16625;53.624;10.106;2023-04-28T00:32:19;14.90;;;8.97;;
4921;SDS011;16625;53.624;10.106;2023-04-28T00:34:48;26.67;;;9.70;;
4921;SDS011;16625;53.624;10.106;2023-04-28T00:37:15;18.90;;;9.57;;
4921;SDS011;16625;53.624;10.106;2023-04-28T00:39:42;15.10;;;10.40;;
4921;SDS011;16625;53.624;10.106;2023-04-28T00:42:11;15.20;;;9.30;;
4921;SDS011;16625;53.624;10.106;2023-04-28T00:44:38;17.17;;;8.87;;
4921;SDS011;16625;53.624;10.106;2023-04-28T00:47:05;17.63;;;8.60;;
4921;SDS011;16625;53.624;10.106;2023-04-28T00:49:33;11.90;;;8.37;;
4921;SDS011;16625;53.624;10.106;2023-04-28T00:52:03;12.60;;;8.97;;
4921;SDS011;16625;53.624;10.106;2023-04-28T00:54:31;18.03;;;9.17;;
4921;SDS011;16625;53.624;10.106;2023-04-28T00:56:58;14.20;;;8.80;;
4921;SDS011;16625;53.624;10.106;2023-04-28T00:59:27;13.67;;;8.77;;
4921;SDS011;16625;53.624;10.106;2023-04-28T01:01:54;15.20;;;9.07;;
4921;SDS011;16625;53.624;10.106;2023-04-28T01:04:21;14.10;;;8.70;;
4921;SDS011;16625;53.624;10.106;2023-04-28T01:06:48;14.77;;;9.63;;
4921;SDS011;16625;53.624;10.106;2023-04-28T01:09:19;14.53;;;9.00;;
4921;SDS011;16625;53.624;10.106;2023-04-28T01:11:46;11.63;;;8.30;;
4921;SDS011;16625;53.624;10.106;2023-04-28T01:14:13;15.43;;;9.63;;
4921;SDS011;16625;53.624;10.106;2023-04-28T01:16:39;16.60;;;6.97;;
4921;SDS011;16625;53.624;10.106;2023-04-28T01:19:07;15.63;;;9.10;;
4921;SDS011;16625;53.624;10.106;2023-04-28T01:21:38;16.60;;;9.30;;
4921;SDS011;16625;53.624;10.106;2023-04-28T01:24:06;13.40;;;8.30;;
4921;SDS011;16625;53.624;10.106;2023-04-28T01:26:33;16.60;;;8.57;;
4921;SDS011;16625;53.624;10.106;2023-04-28T01:29:02;13.53;;;7.97;;
4921;SDS011;16625;53.624;10.106;2023-04-28T01:31:28;23.57;;;9.57;;
4921;SDS011;16625;53.624;10.106;2023-04-28T01:33:56;12.53;;;8.10;;
4921;SDS011;16625;53.624;10.106;2023-04-28T01:36:23;20.40;;;8.73;;
4921;SDS011;16625;53.624;10.106;2023-04-28T01:38:51;12.23;;;7.80;;
4921;SDS011;16625;53.624;10.106;2023-04-28T01:41:22;13.60;;;8.40;;
4921;SDS011;16625;53.624;10.106;2023-04-28T01:43:49;15.67;;;8.27;;
4921;SDS011;16625;53.624;10.106;2023-04-28T01:46:16;14.40;;;9.10;;
4921;SDS011;16625;53.624;10.106;2023-04-28T01:48:43;11.87;;;8.07;;
4921;SDS011;16625;53.624;10.106;2023-04-28T01:51:10;12.00;;;7.10;;
4921;SDS011;16625;53.624;10.106;2023-04-28T01:53:37;14.50;;;7.37;;
4921;SDS011;16625;53.624;10.106;2023-04-28T01:56:04;14.73;;;8.23;;
4921;SDS011;16625;53.624;10.106;2023-04-28T01:58:32;19.53;;;9.17;;
4921;SDS011;16625;53.624;10.106;2023-04-28T02:00:59;20.10;;;10.03;;
4921;SDS011;16625;53.624;10.106;2023-04-28T02:03:26;16.57;;;9.33;;
4921;SDS011;16625;53.624;10.106;2023-04-28T02:05:53;14.87;;;9.17;;
4921;SDS011;16625;53.624;10.106;2023-04-28T02:08:20;17.80;;;9.70;;
4921;SDS011;16625;53.624;10.106;2023-04-28T02:10:47;13.30;;;8.50;;
4921;SDS011;16625;53.624;10.106;2023-04-28T02:13:14;25.60;;;8.60;;
4921;SDS011;16625;53.624;10.106;2023-04-28T02:15:42;16.77;;;9.63;;
4921;SDS011;16625;53.624;10.106;2023-04-28T02:18:09;13.80;;;8.20;;
4921;SDS011;16625;53.624;10.106;2023-04-28T02:20:36;14.93;;;8.93;;
4921;SDS011;16625;53.624;10.106;2023-04-28T02:23:03;17.80;;;10.20;;
4921;SDS011;16625;53.624;10.106;2023-04-28T02:25:30;12.83;;;8.97;;
4921;SDS011;16625;53.624;10.106;2023-04-28T02:27:57;15.40;;;8.50;;
4921;SDS011;16625;53.624;10.106;2023-04-28T02:30:24;20.70;;;8.87;;
4921;SDS011;16625;53.624;10.106;2023-04-28T02:32:59;11.43;;;8.10;;
4921;SDS011;16625;53.624;10.106;2023-04-28T02:35:26;22.00;;;8.20;;
4921;SDS011;16625;53.624;10.106;2023-04-28T02:37:53;18.47;;;9.97;;
4921;SDS011;16625;53.624;10.106;2023-04-28T02:40:20;16.70;;;8.33;;
4921;SDS011;16625;53.624;10.106;2023-04-28T02:42:47;15.43;;;8.80;;
4921;SDS011;16625;53.624;10.106;2023-04-28T02:45:14;15.80;;;8.20;;
4921;SDS011;16625;53.624;10.106;2023-04-28T02:47:41;12.47;;;8.50;;
4921;SDS011;16625;53.624;10.106;2023-04-28T02:50:10;21.30;;;8.23;;
4921;SDS011;16625;53.624;10.106;2023-04-28T02:52:36;20.03;;;8.80;;
4921;SDS011;16625;53.624;10.106;2023-04-28T02:55:03;17.80;;;9.00;;
4921;SDS011;16625;53.624;10.106;2023-04-28T02:57:31;16.13;;;9.10;;
4921;SDS011;16625;53.624;10.106;2023-04-28T02:59:58;14.27;;;8.80;;
4921;SDS011;16625;53.624;10.106;2023-04-28T03:02:25;16.10;;;7.60;;
4921;SDS011;16625;53.624;10.106;2023-04-28T03:04:52;20.50;;;9.60;;
4921;SDS011;16625;53.624;10.106;2023-04-28T03:07:20;13.97;;;8.80;;
4921;SDS011;16625;53.624;10.106;2023-04-28T03:09:47;16.17;;;8.47;;
4921;SDS011;16625;53.624;10.106;2023-04-28T03:12:14;16.73;;;8.80;;
4921;SDS011;16625;53.624;10.106;2023-04-28T03:14:41;11.00;;;7.93;;
4921;SDS011;16625;53.624;10.106;2023-04-28T03:17:07;14.73;;;8.23;;
4921;SDS011;16625;53.624;10.106;2023-04-28T03:19:35;14.77;;;8.30;;
4921;SDS011;16625;53.624;10.106;2023-04-28T03:22:01;17.70;;;9.20;;
4921;SDS011;16625;53.624;10.106;2023-04-28T03:24:30;11.10;;;8.20;;
4921;SDS011;16625;53.624;10.106;2023-04-28T03:26:56;16.40;;;8.33;;
4921;SDS011;16625;53.624;10.106;2023-04-28T03:29:24;16.37;;;10.17;;
4921;SDS011;16625;53.624;10.106;2023-04-28T03:31:50;18.50;;;9.87;;
4921;SDS011;16625;53.624;10.106;2023-04-28T03:34:17;16.10;;;8.10;;
4921;SDS011;16625;53.624;10.106;2023-04-28T03:36:44;16.37;;;7.07;;
4921;SDS011;16625;53.624;10.106;2023-04-28T03:39:12;34.43;;;9.17;;
4921;SDS011;16625;53.624;10.106;2023-04-28T03:41:40;14.50;;;7.73;;
4921;SDS011;16625;53.624;10.106;2023-04-28T03:44:07;15.90;;;8.23;;
4921;SDS011;16625;53.624;10.106;2023-04-28T03:46:33;15.10;;;8.27;;
4921;SDS011;16625;53.624;10.106;2023-04-28T03:49:00;12.43;;;7.83;;
4921;SDS011;16625;53.624;10.106;2023-04-28T03:51:27;12.80;;;7.40;;
4921;SDS011;16625;53.624;10.106;2023-04-28T03:53:56;14.50;;;8.80;;
4921;SDS011;16625;53.624;10.106;2023-04-28T03:56:23;18.43;;;7.70;;
4921;SDS011;16625;53.624;10.106;2023-04-28T03:58:51;13.57;;;8.60;;
4921;SDS011;16625;53.624;10.106;2023-04-28T04:01:18;17.73;;;7.87;;
4921;SDS011;16625;53.624;10.106;2023-04-28T04:03:45;16.80;;;8.70;;
4921;SDS011;16625;53.624;10.106;2023-04-28T04:06:12;17.03;;;8.40;;
4921;SDS011;16625;53.624;10.106;2023-04-28T04:08:40;13.13;;;7.60;;
4921;SDS011;16625;53.624;10.106;2023-04-28T04:11:09;10.70;;;7.87;;
4921;SDS011;16625;53.624;10.106;2023-04-28T04:13:35;17.23;;;7.80;;
4921;SDS011;16625;53.624;10.106;2023-04-28T04:16:04;13.53;;;7.57;;
4921;SDS011;16625;53.624;10.106;2023-04-28T04:18:32;10.67;;;7.13;;
4921;SDS011;16625;53.624;10.106;2023-04-28T04:20:59;16.50;;;8.60;;
4921;SDS011;16625;53.624;10.106;2023-04-28T04:23:27;14.17;;;8.50;;
4921;SDS011;16625;53.624;10.106;2023-04-28T04:25:54;10.50;;;7.00;;
4921;SDS011;16625;53.624;10.106;2023-04-28T04:28:21;11.50;;;7.10;;
4921;SDS011;16625;53.624;10.106;2023-04-28T04:30:48;11.63;;;8.00;;
4921;SDS011;16625;53.624;10.106;2023-04-28T04:33:17;14.93;;;7.17;;
4921;SDS011;16625;53.624;10.106;2023-04-28T04:35:44;17.50;;;9.27;;
4921;SDS011;16625;53.624;10.106;2023-04-28T04:38:11;15.43;;;7.77;;
4921;SDS011;16625;53.624;10.106;2023-04-28T04:40:39;15.73;;;7.30;;
4921;SDS011;16625;53.624;10.106;2023-04-28T04:43:06;14.23;;;7.00;;
4921;SDS011;16625;53.624;10.106;2023-04-28T04:45:33;14.73;;;6.87;;
4921;SDS011;16625;53.624;10.106;2023-04-28T04:48:00;14.03;;;7.13;;
4921;SDS011;16625;53.624;10.106;2023-04-28T04:50:29;22.93;;;6.60;;
4921;SDS011;16625;53.624;10.106;2023-04-28T04:52:56;14.20;;;7.30;;
4921;SDS011;16625;53.624;10.106;2023-04-28T04:55:23;12.13;;;7.10;;
4921;SDS011;16625;53.624;10.106;2023-04-28T04:57:50;9.53;;;6.90;;
4921;SDS011;16625;53.624;10.106;2023-04-28T05:00:17;12.87;;;6.80;;
4921;SDS011;16625;53.624;10.106;2023-04-28T05:02:45;11.93;;;6.80;;
4921;SDS011;16625;53.624;10.106;2023-04-28T05:05:12;13.00;;;7.10;;
4921;SDS011;16625;53.624;10.106;2023-04-28T05:07:40;16.13;;;6.97;;
4921;SDS011;16625;53.624;10.106;2023-04-28T05:10:07;9.27;;;6.50;;
4921;SDS011;16625;53.624;10.106;2023-04-28T05:12:35;10.30;;;6.33;;
4921;SDS011;16625;53.624;10.106;2023-04-28T05:15:03;10.30;;;6.43;;
4921;SDS011;16625;53.624;10.106;2023-04-28T05:17:30;13.77;;;7.20;;
4921;SDS011;16625;53.624;10.106;2023-04-28T05:19:59;8.10;;;5.77;;
4921;SDS011;16625;53.624;10.106;2023-04-28T05:22:26;11.63;;;6.60;;
4921;SDS011;16625;53.624;10.106;2023-04-28T05:24:56;18.67;;;7.40;;
4921;SDS011;16625;53.624;10.106;2023-04-28T05:27:26;20.40;;;5.67;;
4921;SDS011;16625;53.624;10.106;2023-04-28T05:29:53;10.10;;;5.67;;
4921;SDS011;16625;53.624;10.106;2023-04-28T05:32:20;8.40;;;6.47;;
4921;SDS011;16625;53.624;10.106;2023-04-28T05:34:48;11.87;;;6.50;;
4921;SDS011;16625;53.624;10.106;2023-04-28T05:37:16;12.00;;;5.40;;
4921;SDS011;16625;53.624;10.106;2023-04-28T05:39:42;8.57;;;5.20;;
4921;SDS011;16625;53.624;10.106;2023-04-28T05:42:11;6.63;;;4.80;;
4921;SDS011;16625;53.624;10.106;2023-04-28T05:44:38;13.80;;;5.97;;
4921;SDS011;16625;53.624;10.106;2023-04-28T05:47:05;12.20;;;5.70;;
4921;SDS011;16625;53.624;10.106;2023-04-28T05:49:32;7.63;;;4.70;;
4921;SDS011;16625;53.624;10.106;2023-04-28T05:51:59;6.77;;;4.50;;
4921;SDS011;16625;53.624;10.106;2023-04-28T05:54:26;9.27;;;4.90;;
4921;SDS011;16625;53.624;10.106;2023-04-28T05:56:53;8.00;;;4.57;;
4921;SDS011;16625;53.624;10.106;2023-04-28T05:59:21;6.37;;;4.93;;
4921;SDS011;16625;53.624;10.106;2023-04-28T06:01:52;6.83;;;5.27;;
4921;SDS011;16625;53.624;10.106;2023-04-28T06:04:20;4.63;;;3.97;;
4921;SDS011;16625;53.624;10.106;2023-04-28T06:06:47;6.77;;;4.40;;
4921;SDS011;16625;53.624;10.106;2023-04-28T06:09:14;7.00;;;4.93;;
4921;SDS011;16625;53.624;10.106;2023-04-28T06:11:42;11.57;;;5.13;;
4921;SDS011;16625;53.624;10.106;2023-04-28T06:14:09;10.53;;;4.53;;
4921;SDS011;16625;53.624;10.106;2023-04-28T06:16:38;10.07;;;4.70;;
4921;SDS011;16625;53.624;10.106;2023-04-28T06:19:05;14.53;;;4.93;;
4921;SDS011;16625;53.624;10.106;2023-04-28T06:21:32;6.97;;;4.70;;
4921;SDS011;16625;53.624;10.106;2023-04-28T06:23:59;13.33;;;4.90;;
4921;SDS011;16625;53.624;10.106;2023-04-28T06:26:26;7.30;;;4.43;;
4921;SDS011;16625;53.624;10.106;2023-04-28T06:28:53;5.73;;;4.13;;
4921;SDS011;16625;53.624;10.106;2023-04-28T06:31:21;6.00;;;3.90;;
4921;SDS011;16625;53.624;10.106;2023-04-28T06:33:49;7.23;;;4.70;;
4921;SDS011;16625;53.624;10.106;2023-04-28T06:36:16;9.03;;;5.07;;
4921;SDS011;16625;53.624;10.106;2023-04-28T06:38:43;6.73;;;5.17;;
4921;SDS011;16625;53.624;10.106;2023-04-28T06:41:11;5.27;;;3.80;;
4921;SDS011;16625;53.624;10.106;2023-04-28T06:43:38;5.87;;;3.73;;
4921;SDS011;16625;53.624;10.106;2023-04-28T06:46:05;13.13;;;4.67;;
4921;SDS011;16625;53.624;10.106;2023-04-28T06:48:33;8.93;;;3.90;;
4921;SDS011;16625;53.624;10.106;2023-04-28T06:51:01;7.50;;;4.53;;
4921;SDS011;16625;53.624;10.106;2023-04-28T06:53:29;4.87;;;3.67;;
4921;SDS011;16625;53.624;10.106;2023-04-28T06:55:56;5.77;;;3.83;;
4921;SDS011;16625;53.624;10.106;2023-04-28T06:58:24;5.33;;;4.00;;
4921;SDS011;16625;53.624;10.106;2023-04-28T07:00:51;6.43;;;3.90;;
4921;SDS011;16625;53.624;10.106;2023-04-28T07:03:18;9.17;;;4.17;;
4921;SDS011;16625;53.624;10.106;2023-04-28T07:05:44;5.23;;;3.53;;
4921;SDS011;16625;53.624;10.106;2023-04-28T07:08:13;4.40;;;3.73;;
4921;SDS011;16625;53.624;10.106;2023-04-28T07:10:41;9.17;;;3.80;;
4921;SDS011;16625;53.624;10.106;2023-04-28T07:13:08;9.83;;;3.43;;
4921;SDS011;16625;53.624;10.106;2023-04-28T07:15:35;6.87;;;3.67;;
4921;SDS011;16625;53.624;10.106;2023-04-28T07:18:02;4.47;;;3.10;;
4921;SDS011;16625;53.624;10.106;2023-04-28T07:20:29;11.43;;;3.67;;
4921;SDS011;16625;53.624;10.106;2023-04-28T07:22:56;8.90;;;3.17;;
4921;SDS011;16625;53.624;10.106;2023-04-28T07:25:25;4.37;;;3.23;;
4921;SDS011;16625;53.624;10.106;2023-04-28T07:27:52;7.63;;;3.60;;
4921;SDS011;16625;53.624;10.106;2023-04-28T07:30:19;7.37;;;3.40;;
4921;SDS011;16625;53.624;10.106;2023-04-28T07:32:48;5.90;;;3.23;;
4921;SDS011;16625;53.624;10.106;2023-04-28T07:42:02;6.60;;;3.70;;
4921;SDS011;16625;53.624;10.106;2023-04-28T07:44:32;8.07;;;3.90;;
4921;SDS011;16625;53.624;10.106;2023-04-28T07:46:59;9.73;;;3.60;;
4921;SDS011;16625;53.624;10.106;2023-04-28T07:49:27;5.80;;;3.87;;
4921;SDS011;16625;53.624;10.106;2023-04-28T07:51:57;4.30;;;3.47;;
4921;SDS011;16625;53.624;10.106;2023-04-28T07:54:24;6.13;;;3.27;;
4921;SDS011;16625;53.624;10.106;2023-04-28T07:56:51;3.60;;;2.90;;
4921;SDS011;16625;53.624;10.106;2023-04-28T07:59:20;7.37;;;3.60;;
4921;SDS011;16625;53.624;10.106;2023-04-28T08:01:47;8.00;;;3.50;;
4921;SDS011;16625;53.624;10.106;2023-04-28T08:04:14;6.43;;;3.40;;
4921;SDS011;16625;53.624;10.106;2023-04-28T08:06:43;6.40;;;2.63;;
4921;SDS011;16625;53.624;10.106;2023-04-28T08:09:14;4.70;;;3.13;;
4921;SDS011;16625;53.624;10.106;2023-04-28T08:11:42;7.03;;;3.50;;
4921;SDS011;16625;53.624;10.106;2023-04-28T08:14:27;6.17;;;3.70;;
4921;SDS011;16625;53.624;10.106;2023-04-28T08:16:57;4.60;;;3.37;;
4921;SDS011;16625;53.624;10.106;2023-04-28T08:19:37;4.17;;;3.40;;
4921;SDS011;16625;53.624;10.106;2023-04-28T08:22:05;9.93;;;3.53;;
4921;SDS011;16625;53.624;10.106;2023-04-28T08:24:33;6.40;;;3.20;;
4921;SDS011;16625;53.624;10.106;2023-04-28T08:27:00;8.77;;;3.53;;
4921;SDS011;16625;53.624;10.106;2023-04-28T08:29:32;4.80;;;3.23;;
4921;SDS011;16625;53.624;10.106;2023-04-28T08:32:02;4.50;;;3.03;;
4921;SDS011;16625;53.624;10.106;2023-04-28T08:34:31;9.10;;;3.60;;
4921;SDS011;16625;53.624;10.106;2023-04-28T08:39:58;5.67;;;3.23;;
4921;SDS011;16625;53.624;10.106;2023-04-28T08:42:33;9.27;;;4.30;;
4921;SDS011;16625;53.624;10.106;2023-04-28T08:45:03;7.83;;;3.77;;
4921;SDS011;16625;53.624;10.106;2023-04-28T08:47:32;9.40;;;4.20;;
4921;SDS011;16625;53.624;10.106;2023-04-28T08:50:07;7.13;;;3.13;;
4921;SDS011;16625;53.624;10.106;2023-04-28T08:52:36;5.47;;;3.70;;
4921;SDS011;16625;53.624;10.106;2023-04-28T08:55:05;12.00;;;4.43;;
4921;SDS011;16625;53.624;10.106;2023-04-28T08:57:34;8.43;;;4.63;;
4921;SDS011;16625;53.624;10.106;2023-04-28T09:00:06;8.20;;;3.50;;
4921;SDS011;16625;53.624;10.106;2023-04-28T09:02:34;5.60;;;4.10;;
4921;SDS011;16625;53.624;10.106;2023-04-28T09:05:02;8.67;;;3.50;;
4921;SDS011;16625;53.624;10.106;2023-04-28T09:07:33;6.10;;;4.13;;
4921;SDS011;16625;53.624;10.106;2023-04-28T09:10:15;10.67;;;4.03;;
4921;SDS011;16625;53.624;10.106;2023-04-28T09:12:45;5.53;;;3.47;;
4921;SDS011;16625;53.624;10.106;2023-04-28T09:15:28;7.67;;;3.87;;
4921;SDS011;16625;53.624;10.106;2023-04-28T09:17:58;4.97;;;3.50;;
4921;SDS011;16625;53.624;10.106;2023-04-28T09:20:27;6.67;;;4.27;;
4921;SDS011;16625;53.624;10.106;2023-04-28T09:23:11;7.00;;;3.30;;
4921;SDS011;16625;53.624;10.106;2023-04-28T09:25:39;9.57;;;3.47;;
4921;SDS011;16625;53.624;10.106;2023-04-28T09:28:21;13.53;;;3.77;;
4921;SDS011;16625;53.624;10.106;2023-04-28T09:30:51;4.70;;;3.50;;
4921;SDS011;16625;53.624;10.106;2023-04-28T09:33:18;10.97;;;3.87;;
4921;SDS011;16625;53.624;10.106;2023-04-28T09:35:47;7.57;;;4.00;;
4921;SDS011;16625;53.624;10.106;2023-04-28T09:38:15;5.10;;;3.27;;
4921;SDS011;16625;53.624;10.106;2023-04-28T09:40:49;6.47;;;4.00;;
4921;SDS011;16625;53.624;10.106;2023-04-28T09:43:28;6.00;;;3.40;;
4921;SDS011;16625;53.624;10.106;2023-04-28T09:59:47;5.40;;;3.70;;
4921;SDS011;16625;53.624;10.106;2023-04-28T10:02:52;6.13;;;3.80;;
4921;SDS011;16625;53.624;10.106;2023-04-28T10:15:53;9.13;;;4.17;;
4921;SDS011;16625;53.624;10.106;2023-04-28T10:18:22;8.87;;;4.53;;
4921;SDS011;16625;53.624;10.106;2023-04-28T10:20:54;9.30;;;4.27;;
4921;SDS011;16625;53.624;10.106;2023-04-28T10:23:36;6.13;;;3.40;;
4921;SDS011;16625;53.624;10.106;2023-04-28T10:26:16;7.27;;;3.60;;
4921;SDS011;16625;53.624;10.106;2023-04-28T10:28:45;9.83;;;4.20;;
4921;SDS011;16625;53.624;10.106;2023-04-28T10:31:15;6.30;;;3.90;;
4921;SDS011;16625;53.624;10.106;2023-04-28T10:33:45;9.80;;;4.70;;
4921;SDS011;16625;53.624;10.106;2023-04-28T10:39:13;9.10;;;4.13;;
4921;SDS011;16625;53.624;10.106;2023-04-28T10:41:40;14.00;;;4.20;;
4921;SDS011;16625;53.624;10.106;2023-04-28T10:47:09;11.43;;;5.37;;
4921;SDS011;16625;53.624;10.106;2023-04-28T10:52:47;9.43;;;5.27;;
4921;SDS011;16625;53.624;10.106;2023-04-28T10:55:27;12.47;;;4.53;;
4921;SDS011;16625;53.624;10.106;2023-04-28T11:03:55;7.90;;;3.47;;
4921;SDS011;16625;53.624;10.106;2023-04-28T11:06:28;9.80;;;4.87;;
4921;SDS011;16625;53.624;10.106;2023-04-28T11:09:00;7.23;;;4.70;;
4921;SDS011;16625;53.624;10.106;2023-04-28T11:11:28;8.43;;;4.73;;
4921;SDS011;16625;53.624;10.106;2023-04-28T11:17:00;7.40;;;4.53;;
4921;SDS011;16625;53.624;10.106;2023-04-28T11:19:29;6.17;;;4.07;;
4921;SDS011;16625;53.624;10.106;2023-04-28T11:21:59;7.37;;;4.17;;
4921;SDS011;16625;53.624;10.106;2023-04-28T11:24:27;6.60;;;4.43;;
4921;SDS011;16625;53.624;10.106;2023-04-28T11:26:55;8.40;;;4.27;;
4921;SDS011;16625;53.624;10.106;2023-04-28T11:29:30;7.47;;;3.80;;
4921;SDS011;16625;53.624;10.106;2023-04-28T11:31:59;14.43;;;4.10;;
4921;SDS011;16625;53.624;10.106;2023-04-28T11:34:29;10.37;;;5.10;;
4921;SDS011;16625;53.624;10.106;2023-04-28T11:36:56;10.83;;;4.40;;
4921;SDS011;16625;53.624;10.106;2023-04-28T11:39:27;7.63;;;4.20;;
4921;SDS011;16625;53.624;10.106;2023-04-28T11:41:55;6.17;;;4.20;;
4921;SDS011;16625;53.624;10.106;2023-04-28T11:44:24;8.30;;;3.90;;
4921;SDS011;16625;53.624;10.106;2023-04-28T11:46:56;8.00;;;4.97;;
4921;SDS011;16625;53.624;10.106;2023-04-28T11:49:27;7.50;;;3.83;;
4921;SDS011;16625;53.624;10.106;2023-04-28T11:52:02;6.43;;;4.50;;
4921;SDS011;16625;53.624;10.106;2023-04-28T11:54:30;10.57;;;5.73;;
4921;SDS011;16625;53.624;10.106;2023-04-28T11:56:58;20.43;;;6.00;;
4921;SDS011;16625;53.624;10.106;2023-04-28T11:59:28;9.73;;;5.00;;
4921;SDS011;16625;53.624;10.106;2023-04-28T12:01:57;10.00;;;4.30;;
4921;SDS011;16625;53.624;10.106;2023-04-28T12:04:26;9.63;;;5.23;;
4921;SDS011;16625;53.624;10.106;2023-04-28T12:07:02;9.30;;;4.73;;
4921;SDS011;16625;53.624;10.106;2023-04-28T12:09:30;13.33;;;5.30;;
4921;SDS011;16625;53.624;10.106;2023-04-28T12:11:59;8.87;;;4.87;;
4921;SDS011;16625;53.624;10.106;2023-04-28T12:14:28;11.20;;;4.40;;
4921;SDS011;16625;53.624;10.106;2023-04-28T12:16:58;8.83;;;4.43;;
4921;SDS011;16625;53.624;10.106;2023-04-28T12:19:26;9.70;;;4.40;;
4921;SDS011;16625;53.624;10.106;2023-04-28T12:22:00;11.80;;;5.20;;
4921;SDS011;16625;53.624;10.106;2023-04-28T12:24:32;9.10;;;4.70;;
4921;SDS011;16625;53.624;10.106;2023-04-28T12:27:12;9.23;;;5.07;;
4921;SDS011;16625;53.624;10.106;2023-04-28T12:29:42;8.60;;;4.40;;
4921;SDS011;16625;53.624;10.106;2023-04-28T12:32:13;11.63;;;5.10;;
4921;SDS011;16625;53.624;10.106;2023-04-28T12:34:43;9.70;;;4.80;;
4921;SDS011;16625;53.624;10.106;2023-04-28T12:37:16;13.43;;;5.00;;
4921;SDS011;16625;53.624;10.106;2023-04-28T12:39:43;7.73;;;4.97;;
4921;SDS011;16625;53.624;10.106;2023-04-28T12:42:10;7.80;;;4.90;;
4921;SDS011;16625;53.624;10.106;2023-04-28T12:44:38;7.20;;;4.80;;
4921;SDS011;16625;53.624;10.106;2023-04-28T12:47:07;7.43;;;5.33;;
4921;SDS011;16625;53.624;10.106;2023-04-28T12:49:36;9.63;;;4.70;;
4921;SDS011;16625;53.624;10.106;2023-04-28T12:52:07;9.50;;;5.90;;
4921;SDS011;16625;53.624;10.106;2023-04-28T12:54:41;7.77;;;5.03;;
4921;SDS011;16625;53.624;10.106;2023-04-28T12:57:11;11.97;;;5.20;;
4921;SDS011;16625;53.624;10.106;2023-04-28T12:59:39;10.43;;;5.30;;
4921;SDS011;16625;53.624;10.106;2023-04-28T13:02:06;7.60;;;5.43;;
4921;SDS011;16625;53.624;10.106;2023-04-28T13:04:35;9.13;;;4.90;;
4921;SDS011;16625;53.624;10.106;2023-04-28T13:07:02;10.10;;;5.63;;
4921;SDS011;16625;53.624;10.106;2023-04-28T13:09:31;9.50;;;4.73;;
4921;SDS011;16625;53.624;10.106;2023-04-28T13:12:00;11.67;;;4.70;;
4921;SDS011;16625;53.624;10.106;2023-04-28T13:14:27;9.50;;;5.07;;
4921;SDS011;16625;53.624;10.106;2023-04-28T13:16:55;7.00;;;4.70;;
4921;SDS011;16625;53.624;10.106;2023-04-28T13:19:25;6.27;;;5.00;;
4921;SDS011;16625;53.624;10.106;2023-04-28T13:21:54;10.10;;;5.10;;
4921;SDS011;16625;53.624;10.106;2023-04-28T13:24:22;8.63;;;4.50;;
4921;SDS011;16625;53.624;10.106;2023-04-28T13:26:50;7.33;;;5.13;;
4921;SDS011;16625;53.624;10.106;2023-04-28T13:29:21;7.50;;;6.10;;
4921;SDS011;16625;53.624;10.106;2023-04-28T13:31:49;7.73;;;4.97;;
4921;SDS011;16625;53.624;10.106;2023-04-28T13:34:19;12.53;;;5.47;;
4921;SDS011;16625;53.624;10.106;2023-04-28T13:36:46;8.40;;;5.20;;
4921;SDS011;16625;53.624;10.106;2023-04-28T13:39:15;11.70;;;5.07;;
4921;SDS011;16625;53.624;10.106;2023-04-28T13:41:44;7.77;;;5.33;;
4921;SDS011;16625;53.624;10.106;2023-04-28T13:44:11;9.97;;;5.43;;
4921;SDS011;16625;53.624;10.106;2023-04-28T13:46:41;17.23;;;6.03;;
4921;SDS011;16625;53.624;10.106;2023-04-28T13:49:10;11.57;;;4.90;;
4921;SDS011;16625;53.624;10.106;2023-04-28T13:51:42;12.03;;;5.63;;
4921;SDS011;16625;53.624;10.106;2023-04-28T13:54:10;6.53;;;5.00;;
4921;SDS011;16625;53.624;10.106;2023-04-28T13:56:38;15.80;;;5.33;;
4921;SDS011;16625;53.624;10.106;2023-04-28T13:59:05;8.20;;;5.20;;
4921;SDS011;16625;53.624;10.106;2023-04-28T14:01:32;7.13;;;4.93;;
4921;SDS011;16625;53.624;10.106;2023-04-28T14:04:01;10.60;;;7.17;;
4921;SDS011;16625;53.624;10.106;2023-04-28T14:06:31;8.43;;;4.90;;
4921;SDS011;16625;53.624;10.106;2023-04-28T14:08:58;7.70;;;4.57;;
4921;SDS011;16625;53.624;10.106;2023-04-28T14:11:27;6.10;;;4.20;;
4921;SDS011;16625;53.624;10.106;2023-04-28T14:13:54;10.87;;;4.67;;
4921;SDS011;16625;53.624;10.106;2023-04-28T14:16:22;6.63;;;4.30;;
4921;SDS011;16625;53.624;10.106;2023-04-28T14:18:49;11.40;;;5.50;;
4921;SDS011;16625;53.624;10.106;2023-04-28T14:21:18;7.50;;;4.20;;
4921;SDS011;16625;53.624;10.106;2023-04-28T14:23:47;10.43;;;4.90;;
4921;SDS011;16625;53.624;10.106;2023-04-28T14:26:15;8.50;;;4.13;;
4921;SDS011;16625;53.624;10.106;2023-04-28T14:28:42;8.17;;;4.40;;
4921;SDS011;16625;53.624;10.106;2023-04-28T14:31:09;11.70;;;5.73;;
4921;SDS011;16625;53.624;10.106;2023-04-28T14:33:37;10.80;;;4.80;;
4921;SDS011;16625;53.624;10.106;2023-04-28T14:36:08;11.43;;;6.27;;
4921;SDS011;16625;53.624;10.106;2023-04-28T14:38:37;9.50;;;4.80;;
4921;SDS011;16625;53.624;10.106;2023-04-28T14:41:05;13.57;;;4.63;;
4921;SDS011;16625;53.624;10.106;2023-04-28T14:43:35;9.20;;;4.53;;
4921;SDS011;16625;53.624;10.106;2023-04-28T14:46:03;9.50;;;5.43;;
4921;SDS011;16625;53.624;10.106;2023-04-28T14:48:31;14.03;;;4.80;;
4921;SDS011;16625;53.624;10.106;2023-04-28T14:50:59;7.90;;;5.50;;
4921;SDS011;16625;53.624;10.106;2023-04-28T14:53:27;29.70;;;5.17;;
4921;SDS011;16625;53.624;10.106;2023-04-28T14:55:56;10.03;;;5.03;;
4921;SDS011;16625;53.624;10.106;2023-04-28T14:58:24;8.90;;;5.63;;
4921;SDS011;16625;53.624;10.106;2023-04-28T15:00:53;9.47;;;5.63;;
4921;SDS011;16625;53.624;10.106;2023-04-28T15:03:21;12.93;;;5.80;;
4921;SDS011;16625;53.624;10.106;2023-04-28T15:06:03;9.63;;;5.00;;
4921;SDS011;16625;53.624;10.106;2023-04-28T15:08:31;10.50;;;5.40;;
4921;SDS011;16625;53.624;10.106;2023-04-28T15:11:00;10.93;;;6.00;;
4921;SDS011;16625;53.624;10.106;2023-04-28T15:13:28;11.73;;;5.90;;
4921;SDS011;16625;53.624;10.106;2023-04-28T15:15:55;7.23;;;5.20;;
4921;SDS011;16625;53.624;10.106;2023-04-28T15:18:22;11.67;;;6.00;;
4921;SDS011;16625;53.624;10.106;2023-04-28T15:20:50;14.13;;;5.70;;
4921;SDS011;16625;53.624;10.106;2023-04-28T15:23:18;9.13;;;6.40;;
4921;SDS011;16625;53.624;10.106;2023-04-28T15:25:45;9.40;;;5.63;;
4921;SDS011;16625;53.624;10.106;2023-04-28T15:28:18;13.43;;;6.13;;
4921;SDS011;16625;53.624;10.106;2023-04-28T15:30:46;14.53;;;6.30;;
4921;SDS011;16625;53.624;10.106;2023-04-28T15:33:14;13.00;;;5.50;;
4921;SDS011;16625;53.624;10.106;2023-04-28T15:35:42;7.50;;;5.20;;
4921;SDS011;16625;53.624;10.106;2023-04-28T15:38:10;13.33;;;5.87;;
4921;SDS011;16625;53.624;10.106;2023-04-28T15:40:43;15.20;;;5.93;;